Time,TemperatureF,DewpointF,PressureIn,WindDirection,WindDirectionDegrees,WindSpeedMPH,WindSpeedGustMPH,Humidity,HourlyPrecipIn,Conditions,Clouds,dailyrainin,SoftwareType,DateUTC
2013-08-23 00:13:00,76.0,76.0,30.03,East,89,2.0,4.0,99,0.00,,,1.39,,2013-08-23 04:13:00,
2013-08-23 00:24:00,76.0,76.0,30.03,East,97,2.0,7.0,99,0.00,,,1.39,,2013-08-23 04:24:00,
2013-08-23 00:43:00,76.0,76.0,30.03,ESE,106,2.0,5.0,99,0.00,,,1.39,,2013-08-23 04:43:00,
2013-08-23 00:54:00,76.0,76.0,30.03,ESE,117,2.0,6.0,99,0.00,,,1.39,,2013-08-23 04:54:00,
2013-08-23 01:13:00,76.0,76.0,30.03,East,100,2.0,5.0,99,0.00,,,1.39,,2013-08-23 05:13:00,
2013-08-23 01:22:00,76.0,76.0,30.03,East,94,0.0,3.0,99,0.00,,,1.39,,2013-08-23 05:22:00,
2013-08-23 01:42:00,76.0,76.0,30.02,East,97,0.0,2.0,99,0.00,,,1.39,,2013-08-23 05:42:00,
2013-08-23 01:52:00,76.0,76.0,30.02,East,84,0.0,2.0,99,0.00,,,1.39,,2013-08-23 05:52:00,
2013-08-23 02:12:00,76.0,76.0,30.01,East,84,0.0,1.0,99,0.00,,,1.39,,2013-08-23 06:12:00,
2013-08-23 02:22:00,76.0,76.0,30.01,ENE,59,1.0,3.0,99,0.00,,,1.39,,2013-08-23 06:22:00,
2013-08-23 02:42:00,76.0,76.0,30.01,NE,36,1.0,3.0,99,0.00,,,1.39,,2013-08-23 06:42:00,
2013-08-23 02:52:00,76.0,76.0,30.00,ENE,58,0.0,3.0,99,0.00,,,1.39,,2013-08-23 06:52:00,
2013-08-23 03:12:00,76.0,76.0,29.99,East,88,0.0,3.0,99,0.00,,,1.39,,2013-08-23 07:12:00,
2013-08-23 03:22:00,76.0,76.0,29.98,ENE,77,0.0,3.0,99,0.00,,,1.39,,2013-08-23 07:22:00,
2013-08-23 03:42:00,76.0,76.0,29.98,ENE,77,0.0,2.0,99,0.00,,,1.39,,2013-08-23 07:42:00,
2013-08-23 03:52:00,76.0,76.0,29.98,ENE,77,0.0,2.0,99,0.00,,,1.39,,2013-08-23 07:52:00,
2013-08-23 04:13:00,76.0,76.0,29.98,ENE,74,1.0,3.0,99,0.00,,,1.39,,2013-08-23 08:13:00,
2013-08-23 04:22:00,76.0,76.0,29.98,ENE,74,0.0,2.0,99,0.00,,,1.39,,2013-08-23 08:22:00,
2013-08-23 04:42:00,76.0,76.0,29.98,ENE,74,0.0,0.0,99,0.00,,,1.39,,2013-08-23 08:42:00,
2013-08-23 04:52:00,75.0,75.0,29.98,ENE,74,0.0,0.0,99,0.00,,,1.39,,2013-08-23 08:52:00,
2013-08-23 05:12:00,75.0,75.0,29.97,ENE,74,0.0,2.0,99,0.01,,,1.40,,2013-08-23 09:12:00,
2013-08-23 05:21:00,75.0,75.0,29.97,ENE,74,0.0,1.0,99,0.01,,,1.40,,2013-08-23 09:21:00,
2013-08-23 05:43:00,75.0,75.0,29.97,ENE,74,0.0,0.0,99,0.01,,,1.40,,2013-08-23 09:43:00,
2013-08-23 05:53:00,74.0,74.0,29.97,ENE,74,0.0,0.0,99,0.01,,,1.40,,2013-08-23 09:53:00,
2013-08-23 06:13:00,74.0,74.0,29.98,ENE,74,0.0,0.0,99,0.00,,,1.40,,2013-08-23 10:13:00,
2013-08-23 06:23:00,74.0,74.0,29.98,ENE,74,0.0,2.0,99,0.00,,,1.40,,2013-08-23 10:23:00,
2013-08-23 06:42:00,75.0,75.0,29.98,ENE,74,0.0,2.0,99,0.00,,,1.40,,2013-08-23 10:42:00,
2013-08-23 06:52:00,75.0,75.0,29.98,ENE,74,0.0,1.0,99,0.00,,,1.40,,2013-08-23 10:52:00,
2013-08-23 07:11:00,75.0,75.0,29.99,ENE,74,0.0,0.0,99,0.00,,,1.40,,2013-08-23 11:11:00,
2013-08-23 07:22:00,75.0,75.0,29.99,ENE,74,0.0,0.0,99,0.00,,,1.40,,2013-08-23 11:22:00,
2013-08-23 07:42:00,75.0,75.0,29.99,ENE,74,0.0,2.0,99,0.00,,,1.40,,2013-08-23 11:42:00,
2013-08-23 07:53:00,76.0,76.0,29.99,ENE,74,0.0,2.0,99,0.00,,,1.40,,2013-08-23 11:53:00,
2013-08-23 08:11:00,76.0,76.0,29.99,ENE,74,0.0,2.0,99,0.00,,,1.40,,2013-08-23 12:11:00,
2013-08-23 08:22:00,77.0,77.0,30.00,East,86,0.0,2.0,99,0.00,,,1.40,,2013-08-23 12:22:00,
2013-08-23 08:42:00,78.0,78.0,30.01,ENE,71,2.0,6.0,99,0.00,,,1.40,,2013-08-23 12:42:00,
2013-08-23 08:52:00,78.0,78.0,30.01,ESE,113,1.0,4.0,99,0.00,,,1.40,,2013-08-23 12:52:00,
2013-08-23 09:12:00,78.0,78.0,30.01,ESE,117,1.0,3.0,99,0.00,,,1.40,,2013-08-23 13:12:00,
2013-08-23 09:22:00,79.0,79.0,30.01,ENE,64,1.0,3.0,99,0.00,,,1.40,,2013-08-23 13:22:00,
2013-08-23 09:42:00,80.0,80.0,30.01,ESE,109,3.0,5.0,99,0.00,,,1.40,,2013-08-23 13:42:00,
2013-08-23 09:52:00,80.0,80.0,30.01,ENE,70,3.0,5.0,99,0.00,,,1.40,,2013-08-23 13:52:00,
2013-08-23 10:12:00,81.0,80.0,30.02,East,89,3.0,7.0,98,0.00,,,1.40,,2013-08-23 14:12:00,
2013-08-23 10:22:00,82.0,80.0,30.02,ESE,119,2.0,7.0,94,0.00,,,1.40,,2013-08-23 14:22:00,
2013-08-23 10:42:00,82.0,79.0,30.02,ESE,105,1.0,7.0,91,0.00,,,1.40,,2013-08-23 14:42:00,
2013-08-23 10:52:00,84.0,79.0,30.03,SE,124,4.0,7.0,86,0.00,,,1.40,,2013-08-23 14:52:00,
2013-08-23 11:11:00,83.0,79.0,30.03,East,101,0.0,5.0,88,0.00,,,1.40,,2013-08-23 15:11:00,
2013-08-23 11:22:00,83.0,79.0,30.03,SE,146,0.0,5.0,88,0.00,,,1.40,,2013-08-23 15:22:00,
2013-08-23 11:44:00,85.0,78.0,30.03,East,96,2.0,4.0,80,0.00,,,1.40,,2013-08-23 15:44:00,
2013-08-23 11:54:00,85.0,79.0,30.03,East,98,0.0,5.0,82,0.00,,,1.40,,2013-08-23 15:54:00,
2013-08-23 12:14:00,85.0,79.0,30.03,ESE,119,0.0,7.0,83,0.00,,,1.40,,2013-08-23 16:14:00,
2013-08-23 12:24:00,88.0,80.0,30.02,ENE,74,2.0,6.0,78,0.00,,,1.40,,2013-08-23 16:24:00,
2013-08-23 12:42:00,86.0,78.0,30.01,ESE,105,0.0,3.0,76,0.00,,,1.40,,2013-08-23 16:42:00,
2013-08-23 12:53:00,87.0,79.0,30.01,East,82,0.0,7.0,77,0.00,,,1.40,,2013-08-23 16:53:00,
2013-08-23 13:13:00,89.0,80.0,30.01,NE,43,1.0,6.0,76,0.00,,,1.40,,2013-08-23 17:13:00,
2013-08-23 13:24:00,88.0,79.0,30.01,SE,134,3.0,5.0,75,0.00,,,1.40,,2013-08-23 17:24:00,
2013-08-23 13:43:00,87.0,78.0,30.01,East,84,1.0,5.0,76,0.00,,,1.40,,2013-08-23 17:43:00,
2013-08-23 13:53:00,88.0,79.0,30.01,SSE,155,3.0,6.0,74,0.00,,,1.40,,2013-08-23 17:53:00,
2013-08-23 14:12:00,88.0,77.0,30.00,ENE,59,1.0,5.0,70,0.00,,,1.40,,2013-08-23 18:12:00,
2013-08-23 14:22:00,90.0,80.0,29.99,East,92,4.0,7.0,73,0.00,,,1.40,,2013-08-23 18:22:00,
2013-08-23 14:42:00,88.0,78.0,29.99,SE,124,0.0,3.0,72,0.00,,,1.40,,2013-08-23 18:42:00,
2013-08-23 14:52:00,88.0,78.0,29.98,East,95,1.0,5.0,73,0.00,,,1.40,,2013-08-23 18:52:00,
2013-08-23 15:12:00,91.0,78.0,29.97,SSE,163,1.0,5.0,65,0.00,,,1.40,,2013-08-23 19:12:00,
2013-08-23 15:22:00,91.0,78.0,29.96,WSW,239,1.0,4.0,67,0.00,,,1.40,,2013-08-23 19:22:00,
2013-08-23 15:42:00,91.0,79.0,29.97,SSE,168,1.0,4.0,68,0.00,,,1.40,,2013-08-23 19:42:00,
2013-08-23 15:52:00,90.0,75.0,29.96,SE,138,2.0,4.0,62,0.00,,,1.40,,2013-08-23 19:52:00,
2013-08-23 16:12:00,92.0,79.0,29.97,SSW,204,0.0,3.0,66,0.00,,,1.40,,2013-08-23 20:12:00,
2013-08-23 16:22:00,91.0,76.0,29.96,South,181,0.0,4.0,62,0.00,,,1.40,,2013-08-23 20:22:00,
2013-08-23 16:42:00,92.0,77.0,29.96,South,180,1.0,4.0,61,0.00,,,0.22,,2013-08-23 20:42:00,
2013-08-23 16:52:00,93.0,78.0,29.94,NE,36,0.0,5.0,61,0.00,,,0.22,,2013-08-23 20:52:00,
2013-08-23 17:12:00,92.0,77.0,29.95,ENE,59,2.0,10.0,62,0.00,,,0.22,,2013-08-23 21:12:00,
2013-08-23 17:22:00,90.0,77.0,29.96,ENE,76,4.0,10.0,66,0.00,,,0.22,,2013-08-23 21:22:00,
2013-08-23 17:44:00,86.0,77.0,29.97,NE,56,7.0,14.0,74,0.00,,,0.20,,2013-08-23 21:44:00,
2013-08-23 17:54:00,85.0,75.0,29.96,East,88,8.0,15.0,73,0.00,,,0.20,,2013-08-23 21:54:00,
2013-08-23 18:13:00,84.0,76.0,29.96,East,86,8.0,16.0,78,0.00,,,0.20,,2013-08-23 22:13:00,
2013-08-23 18:24:00,84.0,77.0,29.96,East,96,7.0,14.0,80,0.00,,,0.20,,2013-08-23 22:24:00,
2013-08-23 18:43:00,83.0,77.0,29.99,East,92,4.0,9.0,83,0.00,,,0.19,,2013-08-23 22:43:00,
2013-08-23 18:53:00,82.0,76.0,29.99,NE,49,5.0,11.0,83,0.00,,,0.19,,2013-08-23 22:53:00,
2013-08-23 19:12:00,81.0,75.0,30.01,NNE,12,6.0,18.0,83,0.00,,,0.19,,2013-08-23 23:12:00,
2013-08-23 19:22:00,78.0,74.0,30.01,West,269,3.0,17.0,87,0.00,,,0.19,,2013-08-23 23:22:00,
2013-08-23 19:43:00,77.0,73.0,30.01,North,5,2.0,12.0,88,0.00,,,0.14,,2013-08-23 23:43:00,
2013-08-23 19:54:00,76.0,73.0,30.01,NNE,21,0.0,9.0,90,0.00,,,0.14,,2013-08-23 23:54:00,
2013-08-23 20:11:00,76.0,73.0,30.02,NE,36,2.0,6.0,91,0.00,,,0.14,,2013-08-24 00:11:00,
2013-08-23 20:22:00,76.0,74.0,30.01,NNW,329,2.0,6.0,92,0.00,,,0.14,,2013-08-24 00:22:00,
2013-08-23 20:43:00,76.0,74.0,30.01,NNW,336,3.0,6.0,92,0.00,,,0.04,,2013-08-24 00:43:00,
2013-08-23 20:53:00,75.0,73.0,30.01,NNW,327,2.0,8.0,92,0.00,,,0.04,,2013-08-24 00:53:00,
2013-08-23 21:11:00,75.0,73.0,30.02,ENE,73,3.0,7.0,93,0.00,,,0.04,,2013-08-24 01:11:00,
2013-08-23 21:22:00,75.0,73.0,30.02,ENE,61,1.0,7.0,94,0.01,,,0.05,,2013-08-24 01:22:00,
2013-08-23 21:42:00,74.0,72.0,30.02,NE,50,2.0,8.0,95,0.04,,,0.05,,2013-08-24 01:42:00,
2013-08-23 21:53:00,74.0,73.0,30.02,NE,40,2.0,5.0,96,0.05,,,0.06,,2013-08-24 01:53:00,
2013-08-23 22:12:00,74.0,73.0,30.03,ESE,111,2.0,7.0,97,0.05,,,0.06,,2013-08-24 02:12:00,
2013-08-23 22:22:00,75.0,74.0,30.02,SE,132,1.0,5.0,97,0.03,,,0.06,,2013-08-24 02:22:00,
2013-08-23 22:42:00,74.0,73.0,30.03,SE,128,0.0,3.0,97,0.01,,,0.06,,2013-08-24 02:42:00,
2013-08-23 22:52:00,74.0,73.0,30.02,ESE,121,0.0,1.0,97,0.00,,,0.06,,2013-08-24 02:52:00,
2013-08-23 23:12:00,74.0,73.0,30.01,ESE,120,0.0,2.0,97,0.00,,,0.06,,2013-08-24 03:12:00,
2013-08-23 23:22:00,74.0,73.0,30.02,East,80,0.0,1.0,98,0.00,,,0.06,,2013-08-24 03:22:00,
2013-08-23 23:44:00,74.0,73.0,30.02,East,82,0.0,2.0,98,0.00,,,0.06,,2013-08-24 03:44:00,
2013-08-23 23:54:00,74.0,73.0,30.02,East,82,0.0,0.0,98,0.00,,,0.06,,2013-08-24 03:54:00,